createdAt,value
2018-01-31T01:52:43.370Z,-77
2018-01-31T01:53:43.466Z,-79
2018-01-31T01:54:43.047Z,-79
2018-01-31T01:55:41.770Z,-79
2018-01-31T01:56:42.649Z,-78
2018-01-31T01:57:42.837Z,-79
2018-01-31T01:58:42.081Z,-79
2018-01-31T01:59:42.335Z,-78
2018-01-31T02:00:43.895Z,-79
2018-01-31T02:01:41.641Z,-79
2018-01-31T02:02:42.613Z,-77
2018-01-31T02:03:42.964Z,-79
2018-01-31T02:04:41.499Z,-79
2018-01-31T02:05:42.072Z,-78
2018-01-31T02:06:42.069Z,-78
2018-01-31T02:07:42.147Z,-79
2018-01-31T02:08:43.096Z,-79
2018-01-31T02:09:45.640Z,-79
2018-01-31T02:10:41.541Z,-81
2018-01-31T02:11:41.251Z,-81
2018-01-31T02:12:41.670Z,-81
2018-01-31T02:13:41.383Z,-80
2018-01-31T02:14:42.704Z,-80
2018-01-31T02:15:41.498Z,-79
2018-01-31T02:16:41.280Z,-80
2018-01-31T02:17:42.908Z,-79
2018-01-31T02:18:46.476Z,-80
2018-01-31T02:19:44.369Z,-80
2018-01-31T02:20:42.175Z,-80
2018-01-31T02:21:42.219Z,-80
2018-01-31T02:22:42.394Z,-80
2018-01-31T02:23:42.963Z,-77
2018-01-31T02:24:40.980Z,-78
2018-01-31T02:25:43.244Z,-79
2018-01-31T02:26:42.707Z,-78
2018-01-31T02:27:43.965Z,-78
2018-01-31T02:28:41.870Z,-79
2018-01-31T02:29:43.024Z,-78
2018-01-31T02:30:41.831Z,-79
2018-01-31T02:31:43.282Z,-81
2018-01-31T02:32:41.200Z,-76
2018-01-31T02:33:41.577Z,-78
2018-01-31T02:34:41.712Z,-76
2018-01-31T02:35:41.537Z,-77
2018-01-31T02:36:41.991Z,-79
2018-01-31T02:37:42.380Z,-79
2018-01-31T02:38:41.392Z,-79
2018-01-31T02:39:41.859Z,-78
2018-01-31T02:40:41.945Z,-78
2018-01-31T02:41:42.814Z,-78
2018-01-31T02:42:43.489Z,-76
2018-01-31T02:43:42.346Z,-77
2018-01-31T02:44:42.188Z,-77
2018-01-31T02:45:42.152Z,-77
2018-01-31T02:46:41.624Z,-77
2018-01-31T02:47:41.371Z,-76
2018-01-31T02:48:41.079Z,-78
2018-01-31T02:49:42.733Z,-78
2018-01-31T02:50:41.322Z,-79
2018-01-31T02:51:41.828Z,-79
2018-01-31T02:52:41.682Z,-78
2018-01-31T02:53:43.643Z,-78
2018-01-31T02:54:43.532Z,-79
2018-01-31T02:55:42.166Z,-78
2018-01-31T02:56:41.344Z,-78
2018-01-31T02:57:41.729Z,-78
2018-01-31T02:58:41.984Z,-78
2018-01-31T02:59:42.737Z,-78
2018-01-31T03:00:42.612Z,-78
2018-01-31T03:01:42.843Z,-78
2018-01-31T03:02:44.247Z,-78
2018-01-31T03:03:44.258Z,-76
2018-01-31T03:04:42.304Z,-78
2018-01-31T03:05:41.877Z,-78
2018-01-31T03:06:42.872Z,-78
2018-01-31T03:07:42.797Z,-78
2018-01-31T03:08:41.334Z,-79
2018-01-31T03:09:42.616Z,-78
2018-01-31T03:10:42.589Z,-78
2018-01-31T03:11:41.929Z,-78
2018-01-31T03:12:42.230Z,-79
2018-01-31T03:13:42.755Z,-77
2018-01-31T03:14:43.418Z,-78
2018-01-31T03:15:43.175Z,-78
2018-01-31T03:16:44.054Z,-79
2018-01-31T03:17:42.883Z,-78
2018-01-31T03:18:41.464Z,-78
2018-01-31T03:19:43.444Z,-78
2018-01-31T03:20:41.554Z,-78
2018-01-31T03:21:42.787Z,-77
2018-01-31T03:22:42.387Z,-77
2018-01-31T03:23:41.777Z,-76
2018-01-31T03:24:42.376Z,-78
2018-01-31T03:25:42.323Z,-77
2018-01-31T03:26:41.566Z,-77
2018-01-31T03:27:41.293Z,-77
2018-01-31T03:28:42.372Z,-79
2018-01-31T03:29:42.049Z,-78
2018-01-31T03:30:42.447Z,-76
2018-01-31T03:31:44.837Z,-78
2018-01-31T03:32:42.886Z,-78
2018-01-31T03:33:41.518Z,-78
2018-01-31T03:34:42.312Z,-78
2018-01-31T03:35:42.133Z,-79
2018-01-31T03:36:43.164Z,-79
2018-01-31T03:37:43.281Z,-78
2018-01-31T03:38:47.851Z,-79
2018-01-31T03:39:41.967Z,-76
2018-01-31T03:40:43.366Z,-77
2018-01-31T03:41:43.103Z,-77
2018-01-31T03:42:41.307Z,-77
2018-01-31T03:43:41.316Z,-76
2018-01-31T03:44:42.082Z,-79
2018-01-31T03:45:41.862Z,-78
2018-01-31T03:46:42.882Z,-78
2018-01-31T03:47:42.162Z,-79
2018-01-31T03:48:42.560Z,-78
2018-01-31T03:49:42.572Z,-78
2018-01-31T03:50:41.246Z,-77
2018-01-31T03:51:41.517Z,-77
2018-01-31T03:52:41.684Z,-77
2018-01-31T03:53:41.428Z,-78
2018-01-31T03:54:41.947Z,-79
2018-01-31T03:55:42.162Z,-79
2018-01-31T03:56:41.564Z,-78
2018-01-31T03:57:42.470Z,-78
2018-01-31T03:58:41.562Z,-78
2018-01-31T03:59:40.932Z,-78
2018-01-31T04:00:43.172Z,-79
2018-01-31T04:01:42.337Z,-78
2018-01-31T04:02:42.709Z,-79
2018-01-31T04:03:43.388Z,-78
2018-01-31T04:04:42.439Z,-78
2018-01-31T04:05:42.962Z,-78
2018-01-31T04:06:41.979Z,-78
2018-01-31T04:07:42.547Z,-77
2018-01-31T04:08:43.514Z,-78
2018-01-31T04:09:42.858Z,-78
2018-01-31T04:10:42.332Z,-79
2018-01-31T04:11:43.409Z,-79
2018-01-31T04:12:42.939Z,-79
2018-01-31T04:13:42.601Z,-79
2018-01-31T04:14:41.402Z,-79
2018-01-31T04:15:41.839Z,-78
2018-01-31T04:16:41.699Z,-78
2018-01-31T04:17:43.027Z,-79
2018-01-31T04:18:42.339Z,-81
2018-01-31T04:19:41.110Z,-81
2018-01-31T04:20:41.707Z,-81
2018-01-31T04:21:41.366Z,-80
2018-01-31T04:22:42.320Z,-79
2018-01-31T04:23:41.818Z,-81
2018-01-31T04:24:41.449Z,-79
2018-01-31T04:25:42.836Z,-80
2018-01-31T04:26:42.929Z,-80
2018-01-31T04:27:41.619Z,-80
2018-01-31T04:28:41.652Z,-79
2018-01-31T04:29:44.162Z,-76
2018-01-31T04:30:42.811Z,-78
2018-01-31T04:31:42.669Z,-78
2018-01-31T04:32:43.643Z,-78
2018-01-31T04:33:42.227Z,-79
2018-01-31T04:34:43.523Z,-78
2018-01-31T04:35:41.434Z,-78
2018-01-31T04:36:42.375Z,-78
2018-01-31T04:37:41.854Z,-78
2018-01-31T04:38:41.374Z,-78
2018-01-31T04:39:41.310Z,-79
2018-01-31T04:40:42.618Z,-78
2018-01-31T04:41:41.849Z,-78
2018-01-31T04:42:42.490Z,-79
2018-01-31T04:43:43.130Z,-78
2018-01-31T04:44:43.904Z,-77
2018-01-31T04:45:44.148Z,-78
2018-01-31T04:46:41.595Z,-78
2018-01-31T04:47:43.039Z,-78
2018-01-31T04:48:41.310Z,-76
2018-01-31T04:49:41.469Z,-76
2018-01-31T04:50:41.276Z,-76
2018-01-31T04:51:40.981Z,-78
2018-01-31T04:52:40.882Z,-77
2018-01-31T04:53:40.790Z,-78
2018-01-31T04:54:41.109Z,-78
2018-01-31T04:55:41.140Z,-77
2018-01-31T04:56:41.249Z,-77
2018-01-31T04:57:41.177Z,-76
2018-01-31T04:58:40.973Z,-76
2018-01-31T04:59:41.130Z,-76
2018-01-31T05:00:41.042Z,-76
2018-01-31T05:01:41.298Z,-74
2018-01-31T05:02:41.216Z,-79
2018-01-31T05:03:40.903Z,-79
2018-01-31T05:04:41.187Z,-79
2018-01-31T05:05:41.326Z,-77
2018-01-31T05:06:41.192Z,-75
2018-01-31T05:07:40.939Z,-78
2018-01-31T05:08:41.015Z,-78
2018-01-31T05:09:41.316Z,-81
2018-01-31T05:10:41.303Z,-80
2018-01-31T05:11:40.900Z,-79
2018-01-31T05:12:41.023Z,-79
2018-01-31T05:13:41.018Z,-81
2018-01-31T05:14:40.952Z,-80
2018-01-31T05:15:41.167Z,-78
2018-01-31T05:16:40.942Z,-77
2018-01-31T05:17:41.291Z,-77
2018-01-31T05:18:41.236Z,-80
2018-01-31T05:19:41.180Z,-79
2018-01-31T05:20:41.473Z,-79
2018-01-31T05:21:41.047Z,-79
2018-01-31T05:22:41.053Z,-79
2018-01-31T05:23:41.779Z,-79
2018-01-31T05:24:41.369Z,-79
2018-01-31T05:25:41.070Z,-79
2018-01-31T05:26:40.829Z,-78
2018-01-31T05:27:41.237Z,-79
2018-01-31T05:28:41.202Z,-79
2018-01-31T05:29:41.181Z,-79
2018-01-31T05:30:41.085Z,-79
2018-01-31T05:31:41.168Z,-80
2018-01-31T05:32:41.214Z,-78
2018-01-31T05:33:41.273Z,-78
2018-01-31T05:34:41.067Z,-79
2018-01-31T05:35:41.259Z,-78
2018-01-31T05:36:41.224Z,-78
2018-01-31T05:37:41.362Z,-78
2018-01-31T05:38:41.306Z,-79
2018-01-31T05:39:41.434Z,-76
2018-01-31T05:40:41.133Z,-80
2018-01-31T05:41:41.145Z,-80
2018-01-31T05:42:41.081Z,-78
2018-01-31T05:43:41.353Z,-79
2018-01-31T05:44:41.247Z,-78
2018-01-31T05:45:41.139Z,-78
2018-01-31T05:46:41.096Z,-78
2018-01-31T05:47:40.866Z,-78
2018-01-31T05:48:41.189Z,-79
2018-01-31T05:49:40.901Z,-79
2018-01-31T05:50:41.408Z,-80
2018-01-31T05:51:40.944Z,-80
2018-01-31T05:52:41.070Z,-81
2018-01-31T05:53:41.256Z,-81
2018-01-31T05:54:41.348Z,-80
2018-01-31T05:55:41.252Z,-79
2018-01-31T05:56:41.228Z,-80
2018-01-31T05:57:40.991Z,-81
2018-01-31T05:58:41.047Z,-79
2018-01-31T05:59:41.245Z,-80
2018-01-31T06:00:41.200Z,-79
2018-01-31T06:01:41.264Z,-77
2018-01-31T06:02:41.333Z,-79
2018-01-31T06:03:41.171Z,-80
2018-01-31T06:04:41.361Z,-78
2018-01-31T06:05:41.170Z,-77
2018-01-31T06:06:41.313Z,-77
2018-01-31T06:07:41.302Z,-78
2018-01-31T06:08:40.980Z,-80
2018-01-31T06:09:41.506Z,-78
2018-01-31T06:10:41.136Z,-79
2018-01-31T06:11:41.248Z,-78
2018-01-31T06:12:41.309Z,-78
2018-01-31T06:13:41.319Z,-79
2018-01-31T06:14:41.312Z,-77
2018-01-31T06:15:41.089Z,-80
2018-01-31T06:16:41.361Z,-78
2018-01-31T06:17:41.370Z,-79
2018-01-31T06:18:41.390Z,-79
2018-01-31T06:19:40.983Z,-79
2018-01-31T06:20:41.366Z,-79
2018-01-31T06:21:41.159Z,-79
2018-01-31T06:22:40.942Z,-77
2018-01-31T06:23:41.078Z,-79
2018-01-31T06:24:41.291Z,-78
2018-01-31T06:25:41.161Z,-78
2018-01-31T06:26:41.191Z,-81
2018-01-31T06:27:40.966Z,-80
2018-01-31T06:28:41.110Z,-81
2018-01-31T06:29:41.330Z,-81
2018-01-31T06:30:41.377Z,-77
2018-01-31T06:31:40.930Z,-80
2018-01-31T06:32:41.005Z,-79
2018-01-31T06:33:41.145Z,-79
2018-01-31T06:34:41.332Z,-78
2018-01-31T06:35:41.218Z,-78
2018-01-31T06:36:41.169Z,-77
2018-01-31T06:37:41.187Z,-78
2018-01-31T06:38:41.202Z,-78
2018-01-31T06:39:41.414Z,-78
2018-01-31T06:40:41.399Z,-78
2018-01-31T06:41:41.961Z,-78
2018-01-31T06:42:41.300Z,-79
2018-01-31T06:43:41.398Z,-78
2018-01-31T06:44:41.829Z,-78
2018-01-31T06:45:41.422Z,-81
2018-01-31T06:46:41.471Z,-80
2018-01-31T06:47:41.212Z,-80
2018-01-31T06:48:41.163Z,-78
2018-01-31T06:49:41.272Z,-77
2018-01-31T06:50:41.198Z,-77
2018-01-31T06:51:41.122Z,-77
2018-01-31T06:52:41.383Z,-79
2018-01-31T06:53:41.064Z,-79
2018-01-31T06:54:41.399Z,-79
2018-01-31T06:55:41.063Z,-79
2018-01-31T06:56:41.398Z,-79
2018-01-31T06:57:41.035Z,-79
2018-01-31T06:58:41.104Z,-77
2018-01-31T06:59:41.204Z,-78
2018-01-31T07:00:41.304Z,-78
2018-01-31T07:01:41.115Z,-77
2018-01-31T07:02:41.404Z,-77
2018-01-31T07:03:41.152Z,-77
2018-01-31T07:04:41.044Z,-77
2018-01-31T07:05:41.544Z,-77
2018-01-31T07:06:41.604Z,-77
2018-01-31T07:07:42.051Z,-81
2018-01-31T07:08:41.825Z,-80
2018-01-31T07:09:41.888Z,-80
2018-01-31T07:10:41.314Z,-80
2018-01-31T07:11:41.275Z,-80
2018-01-31T07:12:41.265Z,-79
2018-01-31T07:13:41.722Z,-78
2018-01-31T07:14:41.617Z,-78
2018-01-31T07:15:41.360Z,-77
2018-01-31T07:16:41.498Z,-77
2018-01-31T07:17:41.452Z,-80
2018-01-31T07:18:41.408Z,-80
2018-01-31T07:19:41.544Z,-80
2018-01-31T07:20:41.115Z,-80
2018-01-31T07:21:41.344Z,-80
2018-01-31T07:22:41.336Z,-79
2018-01-31T07:23:41.015Z,-77
2018-01-31T07:24:41.725Z,-80
2018-01-31T07:25:41.094Z,-80
2018-01-31T07:26:41.375Z,-80
2018-01-31T07:27:41.807Z,-80
2018-01-31T07:28:41.415Z,-80
2018-01-31T07:29:41.919Z,-80
2018-01-31T07:30:41.967Z,-80
2018-01-31T07:31:41.004Z,-77
2018-01-31T07:32:41.375Z,-80
2018-01-31T07:33:41.321Z,-80
2018-01-31T07:34:41.483Z,-80
2018-01-31T07:35:41.299Z,-78
2018-01-31T07:36:41.395Z,-80
2018-01-31T07:37:41.270Z,-77
2018-01-31T07:38:42.121Z,-78
2018-01-31T07:39:41.143Z,-80
2018-01-31T07:40:41.314Z,-80
2018-01-31T07:41:41.416Z,-78
2018-01-31T07:42:41.330Z,-78
2018-01-31T07:43:41.564Z,-77
2018-01-31T07:44:41.548Z,-79
2018-01-31T07:45:41.234Z,-78
2018-01-31T07:46:41.370Z,-80
2018-01-31T07:47:41.530Z,-80
2018-01-31T07:48:42.077Z,-80
2018-01-31T07:49:41.391Z,-79
2018-01-31T07:50:41.335Z,-81
2018-01-31T07:51:41.314Z,-80
2018-01-31T07:52:41.482Z,-78
2018-01-31T07:53:41.312Z,-79
2018-01-31T07:54:41.344Z,-80
2018-01-31T07:55:41.439Z,-80
2018-01-31T07:56:41.421Z,-78
2018-01-31T07:57:41.242Z,-77
2018-01-31T07:58:41.451Z,-77
2018-01-31T07:59:41.605Z,-79
2018-01-31T08:00:41.442Z,-80
2018-01-31T08:01:42.433Z,-80
2018-01-31T08:02:41.629Z,-80
2018-01-31T08:03:41.496Z,-79
2018-01-31T08:04:41.450Z,-79
2018-01-31T08:05:41.413Z,-79
2018-01-31T08:06:41.325Z,-79
2018-01-31T08:07:41.328Z,-79
2018-01-31T08:08:41.430Z,-79
2018-01-31T08:09:41.187Z,-79
2018-01-31T08:10:41.379Z,-79
2018-01-31T08:11:41.469Z,-78
2018-01-31T08:12:41.180Z,-79
2018-01-31T08:13:41.554Z,-77
2018-01-31T08:14:41.164Z,-79
2018-01-31T08:15:40.295Z,-80
2018-01-31T08:16:40.454Z,-80
2018-01-31T08:17:40.563Z,-78
2018-01-31T08:18:40.514Z,-78
2018-01-31T08:19:40.685Z,-80
2018-01-31T08:20:40.489Z,-78
2018-01-31T08:21:40.333Z,-78
2018-01-31T08:22:40.555Z,-76
2018-01-31T08:23:40.500Z,-79
2018-01-31T08:24:40.647Z,-78
2018-01-31T08:25:40.357Z,-78
2018-01-31T08:26:40.353Z,-77
2018-01-31T08:27:41.285Z,-77
2018-01-31T08:28:40.353Z,-79
2018-01-31T08:29:40.487Z,-80
2018-01-31T08:30:40.240Z,-79
2018-01-31T08:31:40.604Z,-79
2018-01-31T08:32:40.273Z,-79
2018-01-31T08:33:40.528Z,-79
2018-01-31T08:34:40.774Z,-79
2018-01-31T08:35:40.390Z,-80
2018-01-31T08:36:40.461Z,-80
2018-01-31T08:37:40.288Z,-79
2018-01-31T08:38:40.203Z,-79
2018-01-31T08:39:40.805Z,-77
2018-01-31T08:40:40.630Z,-78
2018-01-31T08:41:40.440Z,-78
2018-01-31T08:42:40.627Z,-80
2018-01-31T08:43:40.640Z,-79
2018-01-31T08:44:40.615Z,-78
2018-01-31T08:45:40.962Z,-78
2018-01-31T08:46:40.578Z,-79
2018-01-31T08:47:40.677Z,-79
2018-01-31T08:48:40.640Z,-79
2018-01-31T08:49:40.659Z,-77
2018-01-31T08:50:40.665Z,-77
2018-01-31T08:51:40.763Z,-76
2018-01-31T08:52:40.692Z,-79
2018-01-31T08:53:40.958Z,-76
2018-01-31T08:54:40.896Z,-77
2018-01-31T08:55:40.829Z,-78
2018-01-31T08:56:40.848Z,-79
2018-01-31T08:57:41.214Z,-79
2018-01-31T08:58:40.730Z,-79
2018-01-31T08:59:40.725Z,-78
2018-01-31T09:00:40.936Z,-78
2018-01-31T09:01:40.797Z,-79
2018-01-31T09:02:40.847Z,-80
2018-01-31T09:03:40.845Z,-78
2018-01-31T09:04:40.496Z,-80
2018-01-31T09:05:40.633Z,-78
2018-01-31T09:06:40.775Z,-79
2018-01-31T09:07:40.922Z,-78
2018-01-31T09:08:40.764Z,-78
2018-01-31T09:09:40.499Z,-77
2018-01-31T09:10:40.882Z,-77
2018-01-31T09:11:40.645Z,-79
2018-01-31T09:12:41.639Z,-80
2018-01-31T09:13:40.802Z,-79
2018-01-31T09:14:40.818Z,-80
2018-01-31T09:15:40.914Z,-78
2018-01-31T09:16:40.959Z,-79
2018-01-31T09:17:40.861Z,-78
2018-01-31T09:18:40.706Z,-77
2018-01-31T09:19:40.875Z,-77
2018-01-31T09:20:40.552Z,-75
2018-01-31T09:21:41.242Z,-78
2018-01-31T09:22:40.684Z,-78
2018-01-31T09:23:40.761Z,-78
2018-01-31T09:24:40.860Z,-77
2018-01-31T09:25:40.945Z,-75
2018-01-31T09:26:40.810Z,-77
2018-01-31T09:27:40.942Z,-76
2018-01-31T09:28:40.779Z,-76
2018-01-31T09:29:40.871Z,-77
2018-01-31T09:30:40.775Z,-77
2018-01-31T09:31:40.884Z,-78
2018-01-31T09:32:40.844Z,-81
2018-01-31T09:33:40.645Z,-85
2018-01-31T09:34:40.939Z,-83
2018-01-31T09:35:40.846Z,-85
2018-01-31T09:36:40.613Z,-82
2018-01-31T09:37:41.060Z,-82
2018-01-31T09:38:40.962Z,-84
2018-01-31T09:39:40.671Z,-86
2018-01-31T09:40:40.755Z,-85
2018-01-31T09:41:40.937Z,-84
2018-01-31T09:42:40.610Z,-83
2018-01-31T09:43:40.795Z,-83
2018-01-31T09:44:40.700Z,-83
2018-01-31T09:45:41.147Z,-83
2018-01-31T09:46:40.992Z,-82
2018-01-31T09:47:40.905Z,-84
2018-01-31T09:48:41.056Z,-83
2018-01-31T09:49:40.904Z,-83
2018-01-31T09:50:40.966Z,-85
2018-01-31T09:51:40.528Z,-81
2018-01-31T09:52:40.905Z,-83
2018-01-31T09:53:40.658Z,-82
2018-01-31T09:54:40.754Z,-84
2018-01-31T09:55:41.166Z,-85
2018-01-31T09:56:41.198Z,-85
2018-01-31T09:57:40.984Z,-85
2018-01-31T09:58:40.788Z,-84
2018-01-31T09:59:41.794Z,-83
2018-01-31T10:00:40.787Z,-85
2018-01-31T10:01:41.179Z,-85
2018-01-31T10:02:40.855Z,-85
2018-01-31T10:03:40.729Z,-85
2018-01-31T10:04:40.781Z,-82
2018-01-31T10:05:40.679Z,-84
2018-01-31T10:06:42.268Z,-84
2018-01-31T10:07:40.684Z,-84
2018-01-31T10:08:40.913Z,-82
2018-01-31T10:09:40.837Z,-83
2018-01-31T10:10:40.672Z,-82
2018-01-31T10:11:40.983Z,-82
2018-01-31T10:12:40.979Z,-84
2018-01-31T10:13:40.987Z,-81
2018-01-31T10:14:41.011Z,-83
2018-01-31T10:15:40.963Z,-81
2018-01-31T10:16:40.736Z,-83
2018-01-31T10:17:40.615Z,-83
2018-01-31T10:18:40.613Z,-83
2018-01-31T10:19:41.203Z,-76
2018-01-31T10:20:40.709Z,-79
2018-01-31T10:21:40.874Z,-79
2018-01-31T10:22:41.146Z,-79
2018-01-31T10:23:41.207Z,-79
2018-01-31T10:24:41.546Z,-76
2018-01-31T10:25:40.808Z,-78
2018-01-31T10:26:41.113Z,-77
2018-01-31T10:27:41.181Z,-77
2018-01-31T10:28:41.162Z,-77
2018-01-31T10:29:41.209Z,-79
2018-01-31T10:30:40.859Z,-80
2018-01-31T10:31:40.928Z,-80
2018-01-31T10:32:40.676Z,-80
2018-01-31T10:33:40.761Z,-78
2018-01-31T10:34:40.612Z,-79
2018-01-31T10:35:40.696Z,-80
2018-01-31T10:36:40.761Z,-80
2018-01-31T10:37:41.073Z,-80
2018-01-31T10:38:40.726Z,-80
2018-01-31T10:39:41.081Z,-80
2018-01-31T10:40:40.887Z,-80
2018-01-31T10:41:40.990Z,-80
2018-01-31T10:42:41.227Z,-79
2018-01-31T10:43:41.266Z,-79
2018-01-31T10:44:41.022Z,-79
2018-01-31T10:45:40.994Z,-79
2018-01-31T10:46:40.842Z,-79
2018-01-31T10:47:40.836Z,-79
2018-01-31T10:48:40.935Z,-78
2018-01-31T10:49:40.996Z,-77
2018-01-31T10:50:41.015Z,-78
2018-01-31T10:51:40.785Z,-78
2018-01-31T10:52:40.753Z,-77
2018-01-31T10:57:41.060Z,-77
2018-01-31T10:58:41.185Z,-78
2018-01-31T10:59:41.357Z,-79
2018-01-31T11:00:40.839Z,-78
2018-01-31T11:01:40.931Z,-78
2018-01-31T11:02:41.109Z,-78
2018-01-31T11:03:40.982Z,-77
2018-01-31T11:04:41.111Z,-77
2018-01-31T11:05:41.077Z,-77
2018-01-31T11:06:41.149Z,-77
2018-01-31T11:07:41.144Z,-79
2018-01-31T11:08:41.900Z,-78
2018-01-31T11:09:41.146Z,-78
2018-01-31T11:10:40.886Z,-78
2018-01-31T11:11:41.291Z,-78
2018-01-31T11:12:41.089Z,-78
2018-01-31T11:13:41.184Z,-77
2018-01-31T11:14:41.180Z,-80
2018-01-31T11:15:41.508Z,-80
2018-01-31T11:16:41.162Z,-78
2018-01-31T11:17:41.436Z,-80
2018-01-31T11:18:41.435Z,-80
2018-01-31T11:19:41.216Z,-80
2018-01-31T11:20:41.154Z,-78
2018-01-31T11:21:41.096Z,-80
2018-01-31T11:22:41.522Z,-78
2018-01-31T11:23:41.100Z,-79
2018-01-31T11:24:41.083Z,-79
2018-01-31T11:25:42.172Z,-79
2018-01-31T11:26:41.327Z,-79
2018-01-31T11:27:41.507Z,-80
2018-01-31T11:28:41.272Z,-80
2018-01-31T11:29:41.701Z,-78
2018-01-31T11:30:41.519Z,-80
2018-01-31T11:31:41.409Z,-78
2018-01-31T11:32:41.479Z,-78
2018-01-31T11:33:41.284Z,-77
2018-01-31T11:34:41.505Z,-80
2018-01-31T11:35:41.241Z,-80
2018-01-31T11:36:41.520Z,-80
2018-01-31T11:37:41.144Z,-80
2018-01-31T11:38:41.468Z,-77
2018-01-31T11:39:41.319Z,-77
2018-01-31T11:40:41.407Z,-80
2018-01-31T11:41:41.394Z,-80
2018-01-31T11:42:40.303Z,-80
2018-01-31T11:43:41.464Z,-80
2018-01-31T11:44:41.459Z,-80
2018-01-31T11:45:41.463Z,-79
2018-01-31T11:46:41.195Z,-79
2018-01-31T11:47:41.482Z,-76
2018-01-31T11:48:41.441Z,-79
2018-01-31T11:49:41.282Z,-79
2018-01-31T11:50:41.176Z,-79
2018-01-31T11:51:41.329Z,-79
2018-01-31T11:52:41.609Z,-77
2018-01-31T11:53:41.252Z,-78
2018-01-31T11:54:41.656Z,-77
2018-01-31T11:55:41.303Z,-77
2018-01-31T11:56:41.509Z,-77
2018-01-31T11:57:41.705Z,-77
2018-01-31T11:58:41.545Z,-77
2018-01-31T11:59:43.269Z,-77
2018-01-31T12:00:41.390Z,-77
2018-01-31T12:01:41.067Z,-80
2018-01-31T12:02:41.118Z,-80
2018-01-31T12:03:41.207Z,-80
2018-01-31T12:04:41.394Z,-80
2018-01-31T12:05:41.180Z,-78
2018-01-31T12:06:41.056Z,-78
2018-01-31T12:07:41.119Z,-77
2018-01-31T12:08:41.399Z,-78
2018-01-31T12:09:41.395Z,-78
2018-01-31T12:10:41.242Z,-78
2018-01-31T12:11:41.179Z,-78
2018-01-31T12:12:41.524Z,-79
2018-01-31T12:13:41.451Z,-78
2018-01-31T12:14:41.302Z,-79
2018-01-31T12:15:41.597Z,-80
2018-01-31T12:16:41.204Z,-78
2018-01-31T12:17:40.659Z,-78
2018-01-31T12:18:40.560Z,-78
2018-01-31T12:19:40.567Z,-79
2018-01-31T12:20:40.491Z,-77
2018-01-31T12:21:40.347Z,-79
2018-01-31T12:22:40.302Z,-80
2018-01-31T12:23:40.500Z,-79
2018-01-31T12:24:40.781Z,-79
2018-01-31T12:25:40.569Z,-77
2018-01-31T12:26:40.625Z,-77
2018-01-31T12:27:40.505Z,-80
2018-01-31T12:28:40.721Z,-80
2018-01-31T12:29:40.521Z,-78
2018-01-31T12:30:40.518Z,-79
2018-01-31T12:31:40.558Z,-80
2018-01-31T12:32:41.271Z,-79
2018-01-31T12:33:40.296Z,-80
2018-01-31T12:34:40.587Z,-79
2018-01-31T12:35:40.590Z,-79
2018-01-31T12:36:40.264Z,-77
2018-01-31T12:37:40.464Z,-77
2018-01-31T12:38:40.676Z,-80
2018-01-31T12:39:40.805Z,-80
2018-01-31T12:40:40.435Z,-79
2018-01-31T12:41:40.513Z,-78
2018-01-31T12:42:40.429Z,-79
2018-01-31T12:43:40.569Z,-79
2018-01-31T12:44:40.849Z,-79
2018-01-31T12:45:40.322Z,-79
2018-01-31T12:46:40.940Z,-78
2018-01-31T12:47:40.759Z,-78
2018-01-31T12:48:40.510Z,-76
2018-01-31T12:49:40.290Z,-79
2018-01-31T12:50:41.396Z,-79
2018-01-31T12:51:40.655Z,-79
2018-01-31T12:52:40.666Z,-79
2018-01-31T12:53:40.813Z,-78
2018-01-31T12:54:40.848Z,-77
2018-01-31T12:55:40.611Z,-76
2018-01-31T12:56:40.628Z,-76
2018-01-31T12:57:40.654Z,-77
2018-01-31T12:58:40.976Z,-79
2018-01-31T12:59:40.726Z,-78
2018-01-31T13:00:40.557Z,-79
2018-01-31T13:01:40.884Z,-79
2018-01-31T13:02:40.741Z,-77
2018-01-31T13:03:40.798Z,-77
2018-01-31T13:04:40.761Z,-77
2018-01-31T13:05:40.882Z,-76
2018-01-31T13:06:40.437Z,-74
2018-01-31T13:07:40.405Z,-77
2018-01-31T13:08:40.808Z,-77
2018-01-31T13:09:40.514Z,-77
2018-01-31T13:10:40.670Z,-77
2018-01-31T13:11:40.462Z,-77
2018-01-31T13:12:40.386Z,-75
2018-01-31T13:13:40.516Z,-78
2018-01-31T13:14:40.688Z,-78
2018-01-31T13:15:40.474Z,-77
2018-01-31T13:16:40.823Z,-77
2018-01-31T13:17:41.085Z,-76
2018-01-31T13:18:41.210Z,-78
2018-01-31T13:19:41.526Z,-78
2018-01-31T13:20:41.180Z,-78
2018-01-31T13:21:41.085Z,-78
2018-01-31T13:22:40.983Z,-78
2018-01-31T13:23:40.925Z,-77
2018-01-31T13:24:41.322Z,-77
2018-01-31T13:25:42.206Z,-77
2018-01-31T13:26:41.287Z,-78
2018-01-31T13:27:41.246Z,-78
2018-01-31T13:28:41.183Z,-78
2018-01-31T13:29:40.977Z,-78
2018-01-31T13:30:42.030Z,-78
2018-01-31T13:31:41.083Z,-77
2018-01-31T13:32:41.203Z,-78
2018-01-31T13:33:41.227Z,-76
2018-01-31T13:34:40.893Z,-76
2018-01-31T13:35:41.033Z,-76
2018-01-31T13:36:40.844Z,-75
2018-01-31T13:37:41.133Z,-78
2018-01-31T13:38:41.039Z,-79
2018-01-31T13:39:40.867Z,-78
2018-01-31T13:40:40.970Z,-78
2018-01-31T13:41:41.107Z,-77
2018-01-31T13:42:41.172Z,-75
2018-01-31T13:43:41.263Z,-75
2018-01-31T13:44:41.708Z,-75
2018-01-31T13:45:41.003Z,-75
2018-01-31T13:46:41.096Z,-76
2018-01-31T13:47:41.231Z,-75
2018-01-31T13:48:41.235Z,-75
2018-01-31T13:49:41.203Z,-75
2018-01-31T13:50:41.300Z,-77
2018-01-31T13:51:41.216Z,-77
2018-01-31T13:52:41.256Z,-76
2018-01-31T13:53:41.132Z,-74
2018-01-31T13:54:41.020Z,-75
2018-01-31T13:55:41.463Z,-75
2018-01-31T13:56:40.839Z,-75
2018-01-31T13:57:41.342Z,-75
2018-01-31T13:58:40.955Z,-76
2018-01-31T13:59:41.214Z,-77
2018-01-31T14:00:41.012Z,-76
2018-01-31T14:01:41.099Z,-75
2018-01-31T14:02:41.079Z,-78
2018-01-31T14:03:41.036Z,-74
2018-01-31T14:04:41.503Z,-75
2018-01-31T14:05:41.168Z,-75
2018-01-31T14:06:41.001Z,-78
2018-01-31T14:07:40.997Z,-76
2018-01-31T14:08:41.556Z,-75
2018-01-31T14:09:40.792Z,-76
2018-01-31T14:10:40.920Z,-75
2018-01-31T14:11:41.275Z,-75
2018-01-31T14:12:41.234Z,-75
2018-01-31T14:13:40.923Z,-75
2018-01-31T14:14:41.642Z,-75
2018-01-31T14:15:41.199Z,-75
2018-01-31T14:16:41.186Z,-75
2018-01-31T14:17:41.334Z,-75
2018-01-31T14:18:41.095Z,-78
2018-01-31T14:19:41.408Z,-77
2018-01-31T14:20:43.607Z,-77
2018-01-31T14:21:44.871Z,-76
2018-01-31T14:22:43.814Z,-76
2018-01-31T14:23:45.148Z,-74
2018-01-31T14:24:56.768Z,-75
2018-01-31T14:25:52.052Z,-77
2018-01-31T14:26:45.145Z,-77
2018-01-31T14:27:40.955Z,-77
2018-01-31T14:28:40.919Z,-77
2018-01-31T14:29:41.163Z,-77
2018-01-31T14:30:41.180Z,-77
2018-01-31T14:31:41.423Z,-77
2018-01-31T14:32:41.189Z,-75
2018-01-31T14:33:41.161Z,-76
2018-01-31T14:34:41.206Z,-77
2018-01-31T14:35:41.333Z,-77
2018-01-31T14:36:41.833Z,-77
2018-01-31T14:37:44.455Z,-75
2018-01-31T14:38:41.137Z,-77
2018-01-31T14:39:41.400Z,-75
2018-01-31T14:40:41.265Z,-78
2018-01-31T14:41:41.305Z,-77
2018-01-31T14:42:41.019Z,-77
2018-01-31T14:43:41.080Z,-77
2018-01-31T14:44:41.017Z,-78
2018-01-31T14:45:41.109Z,-77
2018-01-31T14:46:42.485Z,-76
2018-01-31T14:47:41.758Z,-77
2018-01-31T14:48:41.217Z,-78
2018-01-31T14:49:41.945Z,-77
2018-01-31T14:50:41.438Z,-76
2018-01-31T14:51:41.416Z,-77
2018-01-31T14:52:41.126Z,-77
2018-01-31T14:53:41.514Z,-78
2018-01-31T14:54:41.341Z,-75
2018-01-31T14:55:41.635Z,-77
2018-01-31T14:56:41.525Z,-76
2018-01-31T14:57:41.456Z,-77
2018-01-31T14:58:41.550Z,-75
2018-01-31T14:59:41.154Z,-78
2018-01-31T15:00:41.478Z,-77
2018-01-31T15:01:41.423Z,-76
2018-01-31T15:02:41.300Z,-78
2018-01-31T15:03:41.161Z,-78
2018-01-31T15:04:41.720Z,-79
2018-01-31T15:05:41.546Z,-79
2018-01-31T15:06:41.562Z,-80
2018-01-31T15:07:41.302Z,-77
2018-01-31T15:08:42.455Z,-77
2018-01-31T15:09:41.317Z,-77
2018-01-31T15:10:41.288Z,-78
2018-01-31T15:11:41.920Z,-78
2018-01-31T15:12:41.407Z,-77
2018-01-31T15:13:41.277Z,-77
2018-01-31T15:14:41.272Z,-77
2018-01-31T15:15:41.491Z,-78
2018-01-31T15:16:41.456Z,-78
2018-01-31T15:17:40.777Z,-77
2018-01-31T15:18:40.260Z,-79
2018-01-31T15:19:40.429Z,-79
2018-01-31T15:20:40.548Z,-79
2018-01-31T15:21:40.388Z,-79
2018-01-31T15:22:40.817Z,-79
2018-01-31T15:23:40.618Z,-80
2018-01-31T15:24:40.468Z,-78
2018-01-31T15:25:40.245Z,-77
2018-01-31T15:26:40.426Z,-77
2018-01-31T15:27:40.157Z,-77
2018-01-31T15:28:40.328Z,-79
2018-01-31T15:29:40.414Z,-79
2018-01-31T15:30:40.560Z,-77
2018-01-31T15:31:40.592Z,-77
2018-01-31T15:32:40.560Z,-79
2018-01-31T15:33:40.362Z,-78
2018-01-31T15:34:40.542Z,-78
2018-01-31T15:35:40.622Z,-79
2018-01-31T15:36:40.438Z,-78
2018-01-31T15:37:40.586Z,-80
2018-01-31T15:38:41.506Z,-78
2018-01-31T15:39:41.648Z,-76
2018-01-31T15:40:40.247Z,-78
2018-01-31T15:41:40.413Z,-77
2018-01-31T15:42:40.610Z,-77